Airfield :
LOGIN :

Register | Disclaimer

   EN    FR    IT 

 










Legend :    VFR   Marginal VFR   IFR   Intensive IFR   Very Intensive IFR
Visi :
Ceiling :
>= 8 km
>= 3000ft
5 to 8 km
1000 to 3000 ft
1500m to 5 km
500 to 1000 ft
800 to 1500m
200 to 500 ft
< 800m
< 200 ft
Symbols :   Thunderstorms  Fog  Heavy snow  Heavy precipitations  Wind > 20 kt
SIGMETs :     Misc.  Thunderstorms  Icing  Turbulence  Mountain Waves  Volcanic Ashes






- Airport Elevation : 433 ft
- IATA code : CCF


LFMK - Carcassonne

CURRENT METAR :
  • 240500Z AUTO VRB02KT 8000 FEW011 SCT030 BKN036 11/11 Q1011 NOSIG

EXPIRED METARs :
  • 240430Z AUTO VRB01KT 6000 2100 BKN027 11/10 Q1011 NOSIG
  • 240400Z AUTO 03002KT 6000 FEW039 11/10 Q1010 BECMG 30010KT
  • 240330Z AUTO VRB02KT 9999 SCT018 BKN026 OVC040 12/11 Q1010 NOSIG
  • 240300Z AUTO VRB02KT 8000 NSC 11/10 Q1010 NOSIG
  • 240230Z AUTO 18002KT 9000 2600 NSC 11/10 Q1010

TAF TAF LFMK
Valid from the 24 at 03:00 until the 25 at 03:00 UTC


240200Z 2403/2503 VRB03KT 9999 BKN025
BECMG 2403/2406 30010KT
TEMPO 2412/2421 SHRA SCT025TCU



MET'MAP, your aeronautical weather chart ! - Copyright ORBIFLY December 2007 - Disclaimer

ORBIFLY MET'MAP TEAM :

Programming & Development : Alexandra Zaïnal
Concept & Development : Baudouin d'Aumeries
Co-Development & Prog : Marc-Olivier Méhu
Technical & hardware support : Manuel Goepfert

Contact : metmap@orbifly.com




SOURCES & CREDITS :

   NOAA